Time;durP1;ratioP1;P1;durP2;ratioP2;P2;SDS_P1;SDS_P2;PMS_P1;PMS_P2;Temp;Humidity;BMP_temperature;BMP_pressure;BME280_temperature;BME280_humidity;BME280_pressure;Samples;Min_cycle;Max_cycle;Signal;HPM_P1;HPM_P2
2023/03/05 00:01:18;;;;;;;17.90;9.32;;;3.00;99.90;;;;;;477028;248;27328;-76
2023/03/05 00:03:20;;;;;;;19.52;9.50;;;2.90;99.90;;;;;;480245;246;27458;-77
2023/03/05 00:05:21;;;;;;;16.95;9.48;;;2.90;99.90;;;;;;477012;247;28026;-77
2023/03/05 00:07:22;;;;;;;18.90;9.93;;;2.90;99.90;;;;;;480255;246;27871;-76
2023/03/05 00:09:23;;;;;;;18.70;9.50;;;2.90;99.90;;;;;;477036;248;27347;-76
2023/03/05 00:11:26;;;;;;;15.50;8.75;;;2.90;99.90;;;;;;480240;246;27510;-78
2023/03/05 00:13:26;;;;;;;20.35;10.90;;;2.90;99.90;;;;;;476947;248;27394;-77
2023/03/05 00:15:27;;;;;;;24.15;11.88;;;2.90;99.90;;;;;;480225;246;27470;-77
2023/03/05 00:17:29;;;;;;;19.35;9.60;;;2.70;99.90;;;;;;477025;248;27378;-76
2023/03/05 00:19:30;;;;;;;20.92;10.73;;;2.80;99.90;;;;;;480217;246;27521;-76
2023/03/05 00:21:31;;;;;;;16.45;9.35;;;2.80;99.90;;;;;;477033;248;27859;-76
2023/03/05 00:23:32;;;;;;;17.25;10.23;;;2.80;99.90;;;;;;480200;247;27962;-77
2023/03/05 00:25:33;;;;;;;22.40;11.18;;;2.70;99.90;;;;;;477017;248;27787;-76
2023/03/05 00:27:35;;;;;;;19.27;10.23;;;2.70;99.90;;;;;;480215;246;27422;-77
2023/03/05 00:29:36;;;;;;;25.65;13.55;;;2.80;99.90;;;;;;476996;248;27363;-78
2023/03/05 00:31:37;;;;;;;21.27;10.90;;;2.70;99.90;;;;;;480222;246;27388;-76
2023/03/05 00:33:38;;;;;;;18.80;10.80;;;2.70;99.90;;;;;;477010;248;27359;-77
2023/03/05 00:35:40;;;;;;;21.25;11.35;;;2.80;99.90;;;;;;480220;246;27503;-77
2023/03/05 00:37:41;;;;;;;20.40;9.65;;;2.80;99.90;;;;;;477024;248;27914;-77
2023/03/05 00:39:42;;;;;;;16.95;9.93;;;2.90;99.90;;;;;;479781;247;27999;-77
2023/03/05 00:41:44;;;;;;;17.83;10.80;;;2.90;99.90;;;;;;477042;247;27871;-77
2023/03/05 00:43:45;;;;;;;20.12;10.30;;;2.90;99.90;;;;;;480208;246;27487;-76
2023/03/05 00:45:46;;;;;;;17.52;10.70;;;2.90;99.90;;;;;;477008;248;27331;-76
2023/03/05 00:47:47;;;;;;;23.67;11.23;;;2.90;99.90;;;;;;480214;246;27419;-77
2023/03/05 00:49:49;;;;;;;19.10;10.18;;;2.90;99.90;;;;;;480244;247;27474;-77
2023/03/05 00:51:50;;;;;;;18.40;9.80;;;2.90;99.90;;;;;;477061;248;27328;-77
2023/03/05 00:53:51;;;;;;;20.48;9.52;;;2.90;99.90;;;;;;480230;247;27399;-78
2023/03/05 00:55:52;;;;;;;19.62;9.95;;;2.90;99.90;;;;;;477050;248;28600;-76
2023/03/05 00:57:54;;;;;;;20.60;10.23;;;2.90;99.90;;;;;;480207;247;28985;-76
2023/03/05 00:59:55;;;;;;;14.98;8.85;;;2.90;99.90;;;;;;477069;247;27486;-78
2023/03/05 01:01:56;;;;;;;21.17;10.73;;;2.80;99.90;;;;;;480250;246;27415;-76
2023/03/05 01:03:58;;;;;;;22.37;10.20;;;2.80;99.90;;;;;;477037;248;27342;-76
2023/03/05 01:05:59;;;;;;;19.92;10.27;;;2.80;99.90;;;;;;480253;246;27376;-77
2023/03/05 01:08:00;;;;;;;19.25;10.00;;;2.80;99.90;;;;;;477041;248;27359;-76
2023/03/05 01:10:01;;;;;;;23.17;12.05;;;2.80;99.90;;;;;;480268;246;27434;-77
2023/03/05 01:12:02;;;;;;;26.25;12.35;;;2.80;99.90;;;;;;477049;248;27872;-77
2023/03/05 01:14:04;;;;;;;18.92;10.00;;;2.80;99.90;;;;;;480229;246;29020;-77
2023/03/05 01:16:05;;;;;;;19.58;10.13;;;2.80;99.90;;;;;;476985;248;27351;-76
2023/03/05 01:18:06;;;;;;;23.30;10.40;;;2.70;99.90;;;;;;480203;246;27512;-77
2023/03/05 01:20:07;;;;;;;20.00;9.75;;;2.70;99.90;;;;;;480235;247;27426;-76
2023/03/05 01:22:09;;;;;;;18.67;10.05;;;2.70;99.90;;;;;;477023;248;27327;-77
2023/03/05 01:24:10;;;;;;;19.87;10.52;;;2.70;99.90;;;;;;480118;246;27439;-77
2023/03/05 01:26:11;;;;;;;17.50;9.98;;;2.70;99.90;;;;;;476960;248;27423;-76
2023/03/05 01:28:12;;;;;;;24.35;10.85;;;2.70;99.90;;;;;;480229;246;27897;-77
2023/03/05 01:30:14;;;;;;;19.20;9.40;;;2.70;99.90;;;;;;477044;248;27865;-77
2023/03/05 01:32:15;;;;;;;20.75;10.75;;;2.70;99.90;;;;;;480223;246;27469;-76
2023/03/05 01:34:17;;;;;;;20.92;10.30;;;2.70;99.90;;;;;;476995;248;27371;-77
2023/03/05 01:36:17;;;;;;;20.90;9.85;;;2.70;99.90;;;;;;480219;246;27382;-77
2023/03/05 01:38:19;;;;;;;18.60;9.63;;;2.70;99.90;;;;;;477033;248;27423;-76
2023/03/05 01:40:20;;;;;;;18.67;10.35;;;2.60;99.90;;;;;;480172;247;27526;-78
2023/03/05 01:42:21;;;;;;;19.98;9.85;;;2.60;99.90;;;;;;477040;248;27351;-78
2023/03/05 01:44:22;;;;;;;15.32;9.30;;;2.60;99.90;;;;;;480210;246;27530;-77
2023/03/05 01:46:24;;;;;;;19.27;10.35;;;2.60;99.90;;;;;;477045;248;28519;-76
2023/03/05 01:48:25;;;;;;;20.70;10.00;;;2.60;99.90;;;;;;480194;247;27968;-76
2023/03/05 01:50:26;;;;;;;19.02;10.40;;;2.60;99.90;;;;;;477028;248;27351;-76
2023/03/05 01:52:27;;;;;;;19.50;9.38;;;2.60;99.90;;;;;;480206;246;27417;-77
2023/03/05 01:54:30;;;;;;;18.35;8.98;;;2.60;99.90;;;;;;476998;248;27390;-77
2023/03/05 01:56:30;;;;;;;21.33;9.30;;;2.60;99.90;;;;;;480025;247;27413;-76
2023/03/05 01:58:31;;;;;;;16.65;9.20;;;2.60;99.90;;;;;;480181;247;27511;-76
2023/03/05 02:00:32;;;;;;;18.85;9.18;;;2.60;99.90;;;;;;480176;247;27467;-77
2023/03/05 02:02:34;;;;;;;21.67;9.98;;;2.60;99.90;;;;;;476655;245;27392;-77
2023/03/05 02:04:35;;;;;;;18.55;9.57;;;2.60;99.90;;;;;;480149;246;27923;-77
2023/03/05 02:06:36;;;;;;;19.92;9.00;;;2.60;99.90;;;;;;476998;248;29881;-76
2023/03/05 02:08:37;;;;;;;18.62;9.07;;;2.50;99.90;;;;;;480194;247;27397;-76
2023/03/05 02:10:39;;;;;;;16.35;9.50;;;2.50;99.90;;;;;;480216;247;27439;-78
2023/03/05 02:12:40;;;;;;;17.67;9.88;;;2.50;99.90;;;;;;476977;248;27391;-77
2023/03/05 02:14:41;;;;;;;17.15;9.07;;;2.50;99.90;;;;;;480080;247;27518;-77
2023/03/05 02:16:43;;;;;;;19.98;9.80;;;2.40;99.90;;;;;;480171;247;27424;-77
2023/03/05 02:18:44;;;;;;;25.52;10.93;;;2.50;99.90;;;;;;477049;248;27320;-77
2023/03/05 02:20:45;;;;;;;19.30;10.15;;;2.40;99.90;;;;;;480232;246;27476;-77
2023/03/05 02:22:46;;;;;;;24.33;11.90;;;2.40;99.90;;;;;;477027;248;27791;-77
2023/03/05 02:24:48;;;;;;;23.20;10.18;;;2.40;99.90;;;;;;480197;246;29122;-77
2023/03/05 02:26:49;;;;;;;22.10;11.18;;;2.40;99.90;;;;;;477044;248;27355;-76
2023/03/05 02:28:50;;;;;;;20.02;11.15;;;2.40;99.90;;;;;;480248;247;27405;-76
2023/03/05 02:30:51;;;;;;;25.12;10.20;;;2.30;99.90;;;;;;477033;248;27354;-76
2023/03/05 02:32:53;;;;;;;20.35;10.35;;;2.40;99.90;;;;;;480237;246;27518;-76
2023/03/05 02:34:54;;;;;;;19.40;10.65;;;2.40;99.90;;;;;;477019;248;27362;-77
2023/03/05 02:36:55;;;;;;;20.27;10.52;;;2.50;99.90;;;;;;480247;243;27534;-77
2023/03/05 02:38:57;;;;;;;24.85;11.70;;;2.40;99.90;;;;;;477046;248;28775;-76
2023/03/05 02:40:58;;;;;;;20.40;10.80;;;2.40;99.90;;;;;;480235;246;27933;-76
2023/03/05 02:42:59;;;;;;;22.13;10.52;;;2.40;99.90;;;;;;480223;247;27463;-76
2023/03/05 02:45:00;;;;;;;22.55;10.80;;;2.40;99.90;;;;;;476996;248;27445;-77
2023/03/05 02:47:01;;;;;;;21.62;10.95;;;2.40;99.90;;;;;;480258;246;27431;-77
2023/03/05 02:49:03;;;;;;;22.02;10.43;;;2.40;99.90;;;;;;480208;247;27393;-77
2023/03/05 02:51:04;;;;;;;18.87;10.05;;;2.40;99.90;;;;;;480216;247;27522;-76
2023/03/05 02:53:05;;;;;;;24.50;10.20;;;2.40;99.90;;;;;;477036;248;27827;-77
2023/03/05 02:55:06;;;;;;;16.33;9.00;;;2.40;99.90;;;;;;480233;247;28021;-76
2023/03/05 02:57:08;;;;;;;24.67;10.20;;;2.40;99.90;;;;;;477084;248;27945;-76
2023/03/05 02:59:09;;;;;;;18.37;9.10;;;2.50;99.90;;;;;;480238;246;27395;-76
2023/03/05 03:01:10;;;;;;;18.05;10.00;;;2.40;99.90;;;;;;477052;248;27379;-77
2023/03/05 03:03:11;;;;;;;19.70;9.43;;;2.40;99.90;;;;;;480217;247;27476;-76
2023/03/05 03:05:13;;;;;;;17.75;9.73;;;2.40;99.90;;;;;;480237;247;27451;-78
2023/03/05 03:07:14;;;;;;;21.95;10.20;;;2.40;99.90;;;;;;477099;248;27366;-77
2023/03/05 03:09:15;;;;;;;19.05;9.60;;;2.40;99.90;;;;;;480212;246;27446;-78
2023/03/05 03:11:17;;;;;;;19.52;9.73;;;2.50;99.90;;;;;;480233;247;27912;-76
2023/03/05 03:13:18;;;;;;;18.58;10.63;;;2.50;99.90;;;;;;477031;248;27869;-76
2023/03/05 03:15:19;;;;;;;21.33;10.65;;;2.50;99.90;;;;;;480200;243;27499;-77
2023/03/05 03:17:20;;;;;;;19.80;9.93;;;2.50;99.90;;;;;;477046;248;27447;-77
2023/03/05 03:19:21;;;;;;;24.95;10.82;;;2.50;99.90;;;;;;480218;246;27422;-77
2023/03/05 03:21:23;;;;;;;19.85;10.90;;;2.40;99.90;;;;;;477026;248;27354;-77
2023/03/05 03:23:24;;;;;;;18.00;9.80;;;2.40;99.90;;;;;;480159;246;27396;-76
2023/03/05 03:25:25;;;;;;;22.35;10.95;;;2.40;99.90;;;;;;480217;247;27446;-77
2023/03/05 03:27:26;;;;;;;17.42;10.18;;;2.40;99.90;;;;;;480255;247;27910;-76
2023/03/05 03:29:28;;;;;;;25.55;9.60;;;2.40;99.90;;;;;;477059;248;27858;-77
2023/03/05 03:31:29;;;;;;;16.35;9.35;;;2.40;99.90;;;;;;480225;247;27878;-76
2023/03/05 03:33:30;;;;;;;18.83;9.70;;;2.40;99.90;;;;;;477024;248;27316;-77
2023/03/05 03:35:31;;;;;;;21.23;9.55;;;2.40;99.90;;;;;;480138;247;27403;-77
2023/03/05 03:37:33;;;;;;;19.35;9.88;;;2.40;99.90;;;;;;477046;248;27354;-78
2023/03/05 03:39:34;;;;;;;16.98;10.25;;;2.30;99.90;;;;;;480223;246;27475;-76
2023/03/05 03:41:35;;;;;;;19.67;10.77;;;2.30;99.90;;;;;;477019;248;27369;-76
2023/03/05 03:43:37;;;;;;;18.05;10.10;;;2.30;99.90;;;;;;480236;246;27478;-77
2023/03/05 03:45:38;;;;;;;21.85;11.07;;;2.40;99.90;;;;;;477050;248;27780;-78
2023/03/05 03:47:39;;;;;;;15.88;9.48;;;2.40;99.90;;;;;;480231;246;27997;-77
2023/03/05 03:49:40;;;;;;;17.98;9.55;;;2.40;99.90;;;;;;477056;248;27872;-78
2023/03/05 03:51:42;;;;;;;18.05;9.43;;;2.30;99.90;;;;;;480196;246;27419;-77
2023/03/05 03:53:43;;;;;;;19.67;10.60;;;2.30;99.90;;;;;;476960;248;27417;-77
2023/03/05 03:55:45;;;;;;;19.83;10.50;;;2.30;99.90;;;;;;480209;246;27391;-77
2023/03/05 03:57:45;;;;;;;19.40;10.20;;;2.40;99.90;;;;;;476999;248;27450;-76
2023/03/05 03:59:49;;;;;;;19.35;9.60;;;2.30;99.90;;;;;;480202;247;27397;-78
2023/03/05 04:01:48;;;;;;;20.65;10.43;;;2.30;99.90;;;;;;480106;247;27434;-77
2023/03/05 04:03:49;;;;;;;26.42;10.88;;;2.30;99.90;;;;;;477043;248;27842;-77
2023/03/05 04:05:50;;;;;;;21.30;10.98;;;2.30;99.90;;;;;;480222;247;27854;-78
2023/03/05 04:07:52;;;;;;;21.15;10.50;;;2.30;99.90;;;;;;477055;248;27338;-76
2023/03/05 04:09:53;;;;;;;21.30;11.15;;;2.30;99.90;;;;;;480266;246;27383;-76
2023/03/05 04:11:54;;;;;;;19.80;10.85;;;2.30;99.90;;;;;;477052;247;27415;-77
2023/03/05 04:13:55;;;;;;;18.87;9.90;;;2.20;99.90;;;;;;480277;246;27475;-76
2023/03/05 04:15:57;;;;;;;22.30;11.00;;;2.20;99.90;;;;;;477069;248;27312;-76
2023/03/05 04:17:58;;;;;;;18.12;10.00;;;2.10;99.90;;;;;;480262;246;27942;-77
2023/03/05 04:19:59;;;;;;;21.62;10.75;;;2.10;99.90;;;;;;477030;248;27876;-76
2023/03/05 04:22:00;;;;;;;20.90;10.05;;;2.20;99.90;;;;;;480249;246;27430;-77
2023/03/05 04:24:02;;;;;;;19.45;9.75;;;2.20;99.90;;;;;;476881;249;27347;-76
2023/03/05 04:26:03;;;;;;;20.67;9.90;;;2.20;99.90;;;;;;480225;247;27383;-77
2023/03/05 04:28:04;;;;;;;15.75;8.93;;;2.20;99.90;;;;;;477033;248;27422;-76
2023/03/05 04:30:05;;;;;;;13.93;9.10;;;2.20;99.90;;;;;;480243;246;27526;-76
2023/03/05 04:32:07;;;;;;;16.73;9.88;;;2.30;99.90;;;;;;477062;248;27327;-77
2023/03/05 04:34:08;;;;;;;16.33;8.27;;;2.30;99.90;;;;;;480179;247;27440;-77
2023/03/05 04:36:09;;;;;;;14.07;8.40;;;2.30;99.90;;;;;;480206;247;27935;-77
2023/03/05 04:38:10;;;;;;;15.68;8.75;;;2.30;99.90;;;;;;480209;247;27961;-76
2023/03/05 04:40:12;;;;;;;19.35;10.02;;;2.30;99.90;;;;;;477038;248;27370;-76
2023/03/05 04:42:13;;;;;;;16.40;9.20;;;2.30;99.90;;;;;;480264;246;27387;-76
2023/03/05 04:44:14;;;;;;;18.58;10.30;;;2.30;99.90;;;;;;477050;248;27405;-76
2023/03/05 04:46:15;;;;;;;19.48;9.90;;;2.20;99.90;;;;;;480226;246;27415;-76
2023/03/05 04:48:17;;;;;;;15.98;10.10;;;2.20;99.90;;;;;;477009;248;27427;-76
2023/03/05 04:50:18;;;;;;;22.10;10.60;;;2.20;99.90;;;;;;464440;253;27475;-76
2023/03/05 04:52:19;;;;;;;20.58;10.30;;;2.20;99.90;;;;;;468591;251;27881;-77
2023/03/05 04:54:21;;;;;;;15.32;8.90;;;2.10;99.90;;;;;;480221;247;29039;-77
2023/03/05 04:56:22;;;;;;;18.62;9.70;;;2.00;99.90;;;;;;477040;248;27795;-77
2023/03/05 04:58:23;;;;;;;16.60;8.52;;;2.00;99.90;;;;;;480223;247;27443;-76
2023/03/05 05:00:24;;;;;;;22.37;10.40;;;2.00;99.90;;;;;;477028;248;27354;-76
2023/03/05 05:02:25;;;;;;;17.20;9.93;;;2.10;99.90;;;;;;480223;247;27426;-76
2023/03/05 05:04:27;;;;;;;17.83;9.85;;;2.00;99.90;;;;;;480242;247;27443;-76
2023/03/05 05:06:28;;;;;;;19.85;10.50;;;2.00;99.90;;;;;;477038;248;27380;-76
2023/03/05 05:08:29;;;;;;;16.37;8.90;;;2.00;99.90;;;;;;480219;246;27435;-77
2023/03/05 05:10:31;;;;;;;16.12;8.88;;;2.00;99.90;;;;;;477056;248;27931;-77
2023/03/05 05:12:32;;;;;;;18.85;10.30;;;2.00;99.90;;;;;;480245;247;27867;-76
2023/03/05 05:14:33;;;;;;;22.52;10.55;;;2.10;99.90;;;;;;480239;247;27955;-77
2023/03/05 05:16:34;;;;;;;16.67;9.32;;;2.10;99.90;;;;;;477029;248;27300;-77
2023/03/05 05:18:36;;;;;;;17.33;9.90;;;2.20;99.90;;;;;;480202;243;27463;-76
2023/03/05 05:20:37;;;;;;;16.42;9.27;;;2.10;99.90;;;;;;477030;248;27439;-76
2023/03/05 05:22:38;;;;;;;19.45;10.52;;;2.20;99.90;;;;;;480224;246;27407;-76
2023/03/05 05:24:39;;;;;;;19.67;11.35;;;2.10;99.90;;;;;;477031;248;27474;-76
2023/03/05 05:26:41;;;;;;;19.87;10.27;;;2.10;99.90;;;;;;480233;246;27415;-76
2023/03/05 05:28:42;;;;;;;19.80;10.43;;;2.10;99.90;;;;;;477048;248;27810;-77
2023/03/05 05:30:43;;;;;;;18.62;9.82;;;2.10;99.90;;;;;;480251;246;27909;-76
2023/03/05 05:32:44;;;;;;;19.70;10.30;;;2.10;99.90;;;;;;477052;248;27315;-77
2023/03/05 05:34:46;;;;;;;19.65;10.55;;;2.10;99.90;;;;;;480209;246;27450;-76
2023/03/05 05:36:47;;;;;;;17.70;9.20;;;2.00;99.90;;;;;;477007;248;27411;-76
2023/03/05 05:38:48;;;;;;;15.32;9.35;;;2.00;99.90;;;;;;480195;246;27411;-77
2023/03/05 05:40:49;;;;;;;17.40;9.55;;;1.90;99.90;;;;;;477062;248;27371;-77
2023/03/05 05:42:51;;;;;;;15.75;9.65;;;1.90;99.90;;;;;;480237;247;27403;-76
2023/03/05 05:44:54;;;;;;;23.40;11.57;;;1.90;99.90;;;;;;477039;248;27439;-76
2023/03/05 05:46:53;;;;;;;16.02;9.40;;;1.90;99.90;;;;;;480198;246;28694;-76
2023/03/05 05:48:54;;;;;;;19.35;10.23;;;1.90;99.90;;;;;;480178;247;27862;-77
2023/03/05 05:50:56;;;;;;;16.92;8.75;;;2.00;99.90;;;;;;477026;248;27414;-76
2023/03/05 05:52:57;;;;;;;17.98;9.57;;;2.00;99.90;;;;;;480229;246;27397;-77
2023/03/05 05:54:58;;;;;;;15.38;9.82;;;2.00;99.90;;;;;;477046;248;27423;-77
2023/03/05 05:56:59;;;;;;;21.50;10.23;;;2.00;99.90;;;;;;480233;246;27431;-77
2023/03/05 05:59:01;;;;;;;23.10;10.43;;;2.00;99.90;;;;;;477071;248;27347;-77
2023/03/05 06:01:02;;;;;;;19.42;9.63;;;1.90;99.90;;;;;;480239;246;27531;-77
2023/03/05 06:03:03;;;;;;;20.20;9.32;;;1.90;99.90;;;;;;477032;248;27792;-78
2023/03/05 06:05:04;;;;;;;19.65;9.88;;;1.80;99.90;;;;;;480201;246;27904;-76
2023/03/05 06:07:06;;;;;;;17.75;9.50;;;1.80;99.90;;;;;;477014;248;27865;-76
2023/03/05 06:09:07;;;;;;;19.65;10.25;;;1.90;99.90;;;;;;480214;246;27494;-76
2023/03/05 06:11:08;;;;;;;18.83;10.48;;;1.90;99.90;;;;;;477046;249;27355;-76
2023/03/05 06:13:09;;;;;;;21.60;10.55;;;1.90;99.90;;;;;;480225;246;27418;-77
2023/03/05 06:15:11;;;;;;;18.70;9.90;;;1.90;99.90;;;;;;476988;249;27393;-77
2023/03/05 06:17:12;;;;;;;21.20;11.25;;;1.90;99.90;;;;;;480210;246;27408;-77
2023/03/05 06:19:13;;;;;;;15.88;8.93;;;1.90;99.90;;;;;;477026;248;27315;-76
2023/03/05 06:21:14;;;;;;;18.10;11.05;;;2.00;99.90;;;;;;480217;246;27986;-76
2023/03/05 06:23:16;;;;;;;13.93;8.85;;;2.00;99.90;;;;;;477027;248;27925;-77
2023/03/05 06:25:17;;;;;;;22.85;11.90;;;2.00;99.90;;;;;;480213;246;27902;-76
2023/03/05 06:27:18;;;;;;;19.30;10.30;;;2.00;99.90;;;;;;477030;248;27342;-77
2023/03/05 06:29:19;;;;;;;17.65;10.23;;;2.00;99.90;;;;;;480254;246;27395;-77
2023/03/05 06:31:21;;;;;;;21.92;9.35;;;2.00;99.90;;;;;;477049;248;27359;-76
2023/03/05 06:33:24;;;;;;;14.60;9.45;;;1.90;99.90;;;;;;480237;247;27387;-77
2023/03/05 06:35:23;;;;;;;18.27;9.57;;;1.90;99.90;;;;;;476967;249;27431;-77
2023/03/05 06:37:24;;;;;;;13.10;8.68;;;1.90;99.90;;;;;;480240;246;27507;-78
2023/03/05 06:39:26;;;;;;;16.70;8.82;;;1.90;99.90;;;;;;477044;248;27913;-76
2023/03/05 06:41:27;;;;;;;19.77;10.35;;;1.90;99.90;;;;;;480241;246;27934;-76
2023/03/05 06:43:28;;;;;;;21.40;10.77;;;1.80;99.90;;;;;;477032;248;27367;-76
2023/03/05 06:45:29;;;;;;;20.73;10.88;;;1.70;99.90;;;;;;480237;246;27431;-77
2023/03/05 06:47:31;;;;;;;26.62;12.13;;;1.70;99.90;;;;;;477056;248;27416;-78
2023/03/05 06:49:32;;;;;;;19.42;10.73;;;1.70;99.90;;;;;;480262;246;27457;-76
2023/03/05 06:51:33;;;;;;;24.35;12.10;;;1.80;99.90;;;;;;477057;248;27363;-77
2023/03/05 06:53:35;;;;;;;17.73;9.75;;;1.90;99.90;;;;;;480239;246;27394;-76
2023/03/05 06:55:38;;;;;;;21.70;10.85;;;1.90;99.90;;;;;;477018;248;27821;-76
2023/03/05 06:57:37;;;;;;;15.98;9.68;;;2.00;99.90;;;;;;480227;246;28005;-78
2023/03/05 06:59:38;;;;;;;21.20;10.05;;;2.10;99.90;;;;;;480256;247;27395;-77
2023/03/05 07:01:40;;;;;;;21.17;10.95;;;2.10;99.90;;;;;;477029;248;27390;-77
2023/03/05 07:03:41;;;;;;;29.92;11.63;;;2.20;99.90;;;;;;480243;246;27447;-78
2023/03/05 07:05:42;;;;;;;25.42;12.57;;;2.20;99.90;;;;;;477042;248;27324;-77
2023/03/05 07:07:43;;;;;;;19.30;11.10;;;2.10;99.90;;;;;;480220;246;27897;-76
2023/03/05 07:09:46;;;;;;;29.58;13.73;;;2.20;99.90;;;;;;480254;247;27403;-76
2023/03/05 07:11:46;;;;;;;19.80;11.48;;;2.20;99.90;;;;;;476947;249;27857;-78
2023/03/05 07:13:47;;;;;;;19.98;11.10;;;2.40;99.90;;;;;;480225;247;27859;-78
2023/03/05 07:15:48;;;;;;;19.95;10.85;;;2.50;99.90;;;;;;477063;248;27339;-76
2023/03/05 07:17:50;;;;;;;20.55;11.12;;;2.60;99.90;;;;;;480257;246;27427;-76
2023/03/05 07:19:51;;;;;;;19.00;10.90;;;2.60;99.90;;;;;;480258;247;27399;-77
2023/03/05 07:21:52;;;;;;;21.08;11.30;;;2.70;99.90;;;;;;477033;248;27391;-76
2023/03/05 07:23:53;;;;;;;17.27;10.50;;;2.80;99.90;;;;;;480291;246;27407;-76
2023/03/05 07:25:55;;;;;;;17.33;10.65;;;2.90;99.90;;;;;;477043;248;27391;-76
2023/03/05 07:27:56;;;;;;;21.77;11.63;;;2.80;99.90;;;;;;480251;246;28725;-77
2023/03/05 07:29:57;;;;;;;18.10;11.10;;;2.90;99.90;;;;;;477067;248;27866;-78
2023/03/05 07:31:58;;;;;;;17.05;10.75;;;2.90;99.90;;;;;;480249;247;27431;-77
2023/03/05 07:34:00;;;;;;;22.30;11.07;;;3.00;99.90;;;;;;477084;248;27387;-77
2023/03/05 07:36:03;;;;;;;17.40;9.98;;;3.00;99.90;;;;;;480234;246;27439;-78
2023/03/05 07:38:02;;;;;;;19.83;11.02;;;3.00;99.90;;;;;;476928;249;27367;-79
2023/03/05 07:40:04;;;;;;;18.77;10.32;;;3.00;99.90;;;;;;480240;246;27399;-76
2023/03/05 07:42:05;;;;;;;15.60;10.00;;;3.10;99.90;;;;;;477028;248;28935;-77
2023/03/05 07:44:06;;;;;;;23.77;11.38;;;3.10;99.90;;;;;;480196;246;27910;-76
2023/03/05 07:46:07;;;;;;;18.75;10.60;;;3.20;99.90;;;;;;477009;248;27415;-77
2023/03/05 07:48:08;;;;;;;16.00;10.10;;;3.20;99.90;;;;;;480280;246;27443;-78
2023/03/05 07:50:10;;;;;;;17.42;10.05;;;3.20;99.90;;;;;;477048;248;27366;-77
2023/03/05 07:52:11;;;;;;;19.35;9.35;;;3.20;99.90;;;;;;480232;246;27434;-77
2023/03/05 07:54:12;;;;;;;15.00;9.77;;;3.30;99.90;;;;;;477023;248;27327;-77
2023/03/05 07:56:13;;;;;;;15.07;9.40;;;3.30;99.90;;;;;;480212;246;27427;-77
2023/03/05 07:58:15;;;;;;;18.02;10.30;;;3.30;99.90;;;;;;477035;248;27839;-78
2023/03/05 08:00:16;;;;;;;15.73;9.63;;;3.30;99.90;;;;;;480238;246;27902;-77
2023/03/05 08:02:18;;;;;;;16.08;9.02;;;3.30;99.90;;;;;;477039;248;27877;-77
2023/03/05 08:04:18;;;;;;;12.88;8.80;;;3.30;99.90;;;;;;480199;247;27408;-76
2023/03/05 08:06:20;;;;;;;17.05;9.35;;;3.40;99.90;;;;;;480218;247;27439;-77
2023/03/05 08:08:21;;;;;;;13.02;8.75;;;3.40;99.90;;;;;;477048;249;27353;-77
2023/03/05 08:10:22;;;;;;;14.85;8.90;;;3.40;99.90;;;;;;477029;247;27382;-77
2023/03/05 08:12:24;;;;;;;16.73;9.00;;;3.40;99.90;;;;;;480243;243;27506;-78
2023/03/05 08:14:25;;;;;;;14.90;8.07;;;3.50;99.90;;;;;;477048;248;27399;-78
2023/03/05 08:16:26;;;;;;;15.77;8.35;;;3.60;99.90;;;;;;480222;243;27436;-77
2023/03/05 08:18:27;;;;;;;17.40;9.02;;;3.60;99.90;;;;;;477045;248;27923;-77
2023/03/05 08:20:29;;;;;;;15.73;9.40;;;3.60;99.90;;;;;;480220;246;27871;-77
2023/03/05 08:22:30;;;;;;;14.80;8.85;;;3.60;99.90;;;;;;477039;248;27351;-77
2023/03/05 08:24:31;;;;;;;13.23;7.85;;;3.60;99.90;;;;;;480226;246;27459;-78
2023/03/05 08:26:32;;;;;;;16.40;8.18;;;3.60;99.90;;;;;;477016;248;27477;-76
2023/03/05 08:28:34;;;;;;;13.35;8.20;;;3.60;99.90;;;;;;480242;246;27911;-80
2023/03/05 08:30:35;;;;;;;10.85;7.03;;;3.60;99.90;;;;;;477051;248;27411;-80
2023/03/05 08:32:36;;;;;;;12.63;7.35;;;3.60;99.90;;;;;;480239;246;27448;-78
2023/03/05 08:34:37;;;;;;;12.60;7.15;;;3.50;99.90;;;;;;477032;248;27802;-77
2023/03/05 08:36:39;;;;;;;10.13;6.45;;;3.40;99.90;;;;;;480232;246;27921;-77
2023/03/05 08:38:40;;;;;;;12.95;7.18;;;3.40;99.90;;;;;;477075;248;27970;-78
2023/03/05 08:40:42;;;;;;;8.80;5.45;;;3.50;99.90;;;;;;480231;247;27510;-77
2023/03/05 08:42:42;;;;;;;15.02;6.85;;;3.60;99.90;;;;;;480230;247;27439;-77
2023/03/05 08:44:44;;;;;;;8.07;6.15;;;3.70;99.90;;;;;;477060;248;27323;-78
2023/03/05 08:46:45;;;;;;;9.40;6.00;;;3.60;99.90;;;;;;480216;246;27431;-78
2023/03/05 08:48:46;;;;;;;9.18;6.18;;;3.60;99.90;;;;;;480303;247;27477;-77
2023/03/05 08:50:48;;;;;;;9.65;5.47;;;3.70;99.90;;;;;;476920;248;27402;-78
2023/03/05 08:52:49;;;;;;;9.50;5.90;;;3.70;99.90;;;;;;480222;246;27537;-77
2023/03/05 08:54:50;;;;;;;10.77;7.00;;;3.70;99.90;;;;;;477075;248;27787;-78
2023/03/05 08:56:51;;;;;;;10.95;5.85;;;3.70;99.90;;;;;;480206;246;27860;-77
2023/03/05 08:58:52;;;;;;;8.88;5.75;;;3.60;99.90;;;;;;477085;248;27843;-80
2023/03/05 09:00:54;;;;;;;10.68;5.95;;;3.50;99.90;;;;;;480078;247;27489;-77
2023/03/05 09:02:55;;;;;;;8.68;5.78;;;3.60;99.90;;;;;;480241;247;27435;-78
2023/03/05 09:04:56;;;;;;;10.85;5.75;;;3.60;99.90;;;;;;477024;248;27358;-78
2023/03/05 09:06:57;;;;;;;12.82;6.50;;;3.50;99.90;;;;;;480205;246;27549;-77
2023/03/05 09:08:59;;;;;;;9.00;5.85;;;3.60;99.90;;;;;;477062;248;27414;-77
2023/03/05 09:11:00;;;;;;;6.35;4.70;;;3.60;99.90;;;;;;480247;247;27391;-77
2023/03/05 09:13:02;;;;;;;8.18;4.93;;;3.70;99.90;;;;;;476957;248;27458;-77
2023/03/05 09:15:02;;;;;;;6.32;4.72;;;3.70;99.90;;;;;;480164;247;27907;-79
2023/03/05 09:17:04;;;;;;;10.68;5.45;;;3.50;99.90;;;;;;480223;247;27934;-77
2023/03/05 09:19:05;;;;;;;8.05;5.18;;;3.50;99.90;;;;;;480235;247;27521;-79
2023/03/05 09:21:06;;;;;;;5.95;4.20;;;3.50;99.90;;;;;;477033;248;27343;-78
2023/03/05 09:23:07;;;;;;;7.80;5.15;;;3.50;99.90;;;;;;480197;246;27442;-80
2023/03/05 09:25:09;;;;;;;6.25;4.60;;;3.50;99.90;;;;;;477008;248;27399;-77
2023/03/05 09:27:10;;;;;;;7.53;4.97;;;3.60;99.90;;;;;;480224;246;27403;-77
2023/03/05 09:29:11;;;;;;;8.30;4.75;;;3.60;99.90;;;;;;477054;248;27402;-80
2023/03/05 09:31:12;;;;;;;8.35;4.97;;;3.70;99.90;;;;;;480223;246;27403;-80
2023/03/05 09:33:14;;;;;;;8.95;5.28;;;3.70;99.90;;;;;;477026;248;27458;-78
2023/03/05 09:35:15;;;;;;;5.95;4.37;;;3.70;99.90;;;;;;480157;246;27419;-78
2023/03/05 09:37:16;;;;;;;6.57;4.80;;;3.70;99.90;;;;;;477043;248;27882;-78
2023/03/05 09:39:17;;;;;;;10.02;5.20;;;3.80;99.90;;;;;;480223;247;28026;-77
2023/03/05 09:41:19;;;;;;;7.95;5.57;;;3.80;99.90;;;;;;477021;248;27905;-78
2023/03/05 09:43:20;;;;;;;12.48;5.05;;;3.80;99.90;;;;;;480219;246;27446;-77
2023/03/05 09:45:21;;;;;;;6.85;4.32;;;3.80;99.90;;;;;;477009;248;27379;-77
2023/03/05 09:47:22;;;;;;;7.32;4.85;;;3.80;99.90;;;;;;480228;246;27403;-77
2023/03/05 09:49:24;;;;;;;10.57;5.70;;;3.90;99.90;;;;;;477049;248;27454;-78
2023/03/05 09:51:25;;;;;;;7.40;4.10;;;3.90;99.90;;;;;;480230;246;27408;-77
2023/03/05 09:53:26;;;;;;;9.10;4.75;;;4.00;99.90;;;;;;477046;248;27409;-77
2023/03/05 09:55:28;;;;;;;6.22;4.40;;;4.00;99.90;;;;;;480200;246;27482;-77
2023/03/05 09:57:29;;;;;;;5.05;3.70;;;3.90;99.90;;;;;;477069;248;27461;-77
2023/03/05 09:59:30;;;;;;;6.35;4.20;;;4.00;99.90;;;;;;480217;246;27930;-77
2023/03/05 10:01:33;;;;;;;5.22;3.80;;;4.00;99.90;;;;;;477027;248;27787;-77
2023/03/05 10:03:32;;;;;;;6.80;4.55;;;4.00;99.90;;;;;;480122;247;27894;-77
2023/03/05 10:05:34;;;;;;;5.43;4.10;;;4.10;99.90;;;;;;480240;247;27475;-78
2023/03/05 10:07:35;;;;;;;10.43;4.25;;;4.20;99.90;;;;;;477062;248;27311;-79
2023/03/05 10:09:36;;;;;;;4.80;3.67;;;4.30;99.90;;;;;;480258;246;27550;-78
2023/03/05 10:11:37;;;;;;;4.53;3.70;;;4.20;99.90;;;;;;477064;248;27410;-78
2023/03/05 10:13:39;;;;;;;4.00;3.60;;;4.20;99.90;;;;;;480255;246;27523;-77
2023/03/05 10:15:40;;;;;;;5.20;4.00;;;4.30;99.90;;;;;;477043;248;27323;-79
2023/03/05 10:17:41;;;;;;;6.53;3.80;;;4.20;99.90;;;;;;480282;246;27871;-78
2023/03/05 10:19:42;;;;;;;4.80;3.33;;;4.30;99.90;;;;;;477071;248;27873;-80
2023/03/05 10:21:44;;;;;;;4.80;3.40;;;4.20;99.90;;;;;;480226;246;27863;-80
2023/03/05 10:23:45;;;;;;;5.40;3.53;;;4.20;99.90;;;;;;477040;248;27419;-80
2023/03/05 10:25:46;;;;;;;6.43;3.97;;;4.30;99.90;;;;;;480216;246;27431;-78
2023/03/05 10:27:48;;;;;;;5.32;3.58;;;4.20;99.90;;;;;;477041;248;27359;-78